Time;durP1;ratioP1;P1;durP2;ratioP2;P2;SDS_P1;SDS_P2;PMS_P1;PMS_P2;Temp;Humidity;BMP_temperature;BMP_pressure;BME280_temperature;BME280_humidity;BME280_pressure;Samples;Min_cycle;Max_cycle;Signal;HPM_P1;HPM_P2
2022/10/06 00:00:03;;;;;;;3.23;0.80;;;;;;;12.97;100.00;101449.16;694068;28;871;-65
2022/10/06 00:00:24;;;;;;;3.10;1.00;;;;;;;12.82;100.00;101452.69;693505;28;1243;-65
2022/10/06 00:00:45;;;;;;;2.53;1.00;;;;;;;12.74;100.00;101451.84;694421;28;4899;-65
2022/10/06 00:01:10;;;;;;;2.40;0.80;;;;;;;12.83;100.00;101451.81;691999;28;1270;-64
2022/10/06 00:01:30;;;;;;;2.55;0.90;;;;;;;12.78;100.00;101450.97;691761;28;1407;-65
2022/10/06 00:01:50;;;;;;;3.43;0.97;;;;;;;12.85;100.00;101454.41;692916;28;1337;-65
2022/10/06 00:02:12;;;;;;;3.87;0.90;;;;;;;12.91;100.00;101451.81;694600;28;1439;-65
2022/10/06 00:02:34;;;;;;;2.53;0.90;;;;;;;12.98;100.00;101443.03;694835;28;1345;-65
2022/10/06 00:02:55;;;;;;;2.58;1.05;;;;;;;13.02;100.00;101450.03;695444;28;1356;-66
2022/10/06 00:03:16;;;;;;;2.90;0.95;;;;;;;13.01;100.00;101447.41;694969;28;1506;-67
2022/10/06 00:03:37;;;;;;;2.90;1.00;;;;;;;12.94;100.00;101446.53;695837;28;1384;-65
2022/10/06 00:03:58;;;;;;;2.38;1.00;;;;;;;12.87;100.00;101435.19;694016;28;4715;-65
2022/10/06 00:04:18;;;;;;;2.90;0.90;;;;;;;12.73;100.00;101452.69;694831;28;1503;-65
2022/10/06 00:04:38;;;;;;;3.28;0.90;;;;;;;12.72;100.00;101429.97;696155;28;1531;-66
2022/10/06 00:04:59;;;;;;;2.90;0.90;;;;;;;12.82;100.00;101441.31;693536;28;1468;-66
2022/10/06 00:05:19;;;;;;;3.00;0.80;;;;;;;12.72;100.00;101446.59;695307;28;1310;-65
2022/10/06 00:05:40;;;;;;;2.53;0.80;;;;;;;12.77;100.00;101443.94;694386;28;1618;-66
2022/10/06 00:06:02;;;;;;;3.38;0.82;;;;;;;12.72;100.00;101445.69;696243;28;1567;-66
2022/10/06 00:06:22;;;;;;;4.85;1.00;;;;;;;12.73;100.00;101450.09;696210;28;1348;-66
2022/10/06 00:06:43;;;;;;;2.93;0.83;;;;;;;12.71;100.00;101444.84;694048;28;4346;-67
2022/10/06 00:07:03;;;;;;;3.05;1.05;;;;;;;12.74;100.00;101441.34;695024;28;1336;-65
2022/10/06 00:07:24;;;;;;;3.50;1.03;;;;;;;12.80;100.00;101445.72;697360;28;1336;-67
2022/10/06 00:07:44;;;;;;;3.25;0.85;;;;;;;12.81;100.00;101452.69;694556;28;1236;-65
2022/10/06 00:08:05;;;;;;;3.03;1.20;;;;;;;12.77;100.00;101446.56;694234;28;1388;-66
2022/10/06 00:08:26;;;;;;;3.60;0.80;;;;;;;12.75;100.00;101449.22;692743;28;1423;-65
2022/10/06 00:08:46;;;;;;;4.85;1.10;;;;;;;12.74;100.00;101450.06;692517;28;1231;-67
2022/10/06 00:09:06;;;;;;;3.90;1.10;;;;;;;12.77;100.00;101443.94;690156;28;1378;-66
2022/10/06 00:09:27;;;;;;;2.73;0.80;;;;;;;12.60;100.00;101455.34;690271;28;1231;-65
2022/10/06 00:09:47;;;;;;;3.73;0.93;;;;;;;12.49;100.00;101451.84;686068;28;4444;-66
2022/10/06 00:10:08;;;;;;;3.05;0.98;;;;;;;12.53;100.00;101450.97;687215;28;1390;-65
2022/10/06 00:10:30;;;;;;;3.30;0.90;;;;;;;12.50;100.00;101447.47;690261;28;1390;-66
2022/10/06 00:10:54;;;;;;;3.65;0.90;;;;;;;12.44;100.00;101451.81;689335;28;1428;-66
2022/10/06 00:11:16;;;;;;;4.70;0.90;;;;;;;12.43;100.00;101451.81;691200;28;1322;-66
2022/10/06 00:11:36;;;;;;;3.00;0.90;;;;;;;12.50;100.00;101447.47;691736;28;1302;-66
2022/10/06 00:11:56;;;;;;;2.83;0.90;;;;;;;12.50;100.00;101450.97;694007;28;1169;-65
2022/10/06 00:12:17;;;;;;;3.00;1.07;;;;;;;12.48;100.00;101450.09;694624;28;1520;-70
2022/10/06 00:12:38;;;;;;;3.00;1.05;;;;;;;12.55;100.00;101441.34;692686;28;1384;-66
2022/10/06 00:12:59;;;;;;;3.38;0.90;;;;;;;12.59;100.00;101439.59;692168;28;4711;-66
2022/10/06 00:13:20;;;;;;;3.85;0.85;;;;;;;12.49;100.00;101435.22;694928;28;1523;-66
2022/10/06 00:13:40;;;;;;;4.28;0.82;;;;;;;12.43;100.00;101442.22;695344;28;1574;-66
2022/10/06 00:14:01;;;;;;;2.93;0.80;;;;;;;12.37;100.00;101444.84;695263;28;1218;-67
2022/10/06 00:14:21;;;;;;;3.17;0.80;;;;;;;12.35;100.00;101443.97;695015;28;1252;-66
2022/10/06 00:14:41;;;;;;;3.50;1.00;;;;;;;12.42;100.00;101440.47;695397;28;1181;-66
2022/10/06 00:15:02;;;;;;;3.33;0.87;;;;;;;12.40;100.00;101444.84;696486;28;1953;-67
2022/10/06 00:15:29;;;;;;;4.70;0.90;;;;;;;12.35;100.00;101445.72;695536;28;907;-67
2022/10/06 00:15:50;;;;;;;3.10;0.90;;;;;;;12.33;100.00;101447.47;694413;28;4352;-67
2022/10/06 00:16:23;;;;;;;2.53;0.80;;;;;;;12.29;100.00;101445.72;696006;28;1348;-67
2022/10/06 00:16:43;;;;;;;2.25;0.77;;;;;;;12.32;100.00;101450.97;697145;28;1270;-67
2022/10/06 00:17:04;;;;;;;3.35;1.00;;;;;;;12.33;100.00;101457.97;693193;28;1435;-67
2022/10/06 00:17:24;;;;;;;4.10;1.00;;;;;;;12.39;100.00;101453.59;694512;28;1257;-66
2022/10/06 00:17:45;;;;;;;2.92;0.90;;;;;;;12.38;100.00;101462.31;694365;28;1401;-66
2022/10/06 00:18:05;;;;;;;3.27;0.90;;;;;;;12.38;100.00;101464.09;691799;28;1532;-66
2022/10/06 00:18:26;;;;;;;3.70;0.93;;;;;;;12.38;100.00;101461.47;693481;28;1234;-66
2022/10/06 00:18:47;;;;;;;4.50;0.98;;;;;;;12.43;100.00;101462.31;693023;28;4818;-66
2022/10/06 00:19:07;;;;;;;4.33;1.00;;;;;;;12.42;100.00;101460.59;688225;28;1386;-69
2022/10/06 00:19:27;;;;;;;2.65;0.90;;;;;;;12.42;100.00;101465.84;688905;28;1326;-66
2022/10/06 00:19:48;;;;;;;2.70;0.77;;;;;;;12.48;100.00;101463.19;688856;28;1170;-65
2022/10/06 00:20:10;;;;;;;4.40;0.90;;;;;;;12.44;100.00;101457.06;693423;28;1302;-66
2022/10/06 00:20:30;;;;;;;4.38;1.00;;;;;;;12.48;100.00;101465.81;692819;28;1369;-66
2022/10/06 00:20:55;;;;;;;2.97;0.80;;;;;;;12.49;100.00;101467.59;692945;28;1293;-66
2022/10/06 00:21:15;;;;;;;3.80;0.98;;;;;;;12.50;100.00;101458.84;694580;28;1383;-68
2022/10/06 00:21:36;;;;;;;4.90;1.17;;;;;;;12.57;100.00;101460.59;695005;28;1526;-67
2022/10/06 00:21:56;;;;;;;5.30;1.10;;;;;;;12.52;100.00;101464.09;692851;28;4268;-66
2022/10/06 00:22:17;;;;;;;3.60;1.00;;;;;;;12.41;100.00;101464.94;694491;28;1452;-67
2022/10/06 00:22:43;;;;;;;3.28;0.90;;;;;;;12.39;100.00;101460.56;693754;28;1309;-66
2022/10/06 00:23:04;;;;;;;3.63;0.88;;;;;;;12.33;100.00;101468.44;695000;28;1504;-67
2022/10/06 00:23:25;;;;;;;3.50;0.90;;;;;;;12.30;100.00;101465.81;695406;28;1225;-67
2022/10/06 00:23:45;;;;;;;4.38;0.90;;;;;;;12.32;100.00;101462.31;695090;28;1387;-66
2022/10/06 00:24:05;;;;;;;3.17;1.20;;;;;;;12.37;100.00;101459.72;695342;28;1457;-66
2022/10/06 00:24:26;;;;;;;1.90;0.90;;;;;;;12.34;100.00;101465.81;695613;28;1265;-67
2022/10/06 00:24:46;;;;;;;2.33;0.83;;;;;;;12.33;100.00;101463.19;694667;28;4403;-66
2022/10/06 00:25:08;;;;;;;3.22;0.80;;;;;;;12.36;100.00;101464.06;694296;28;1333;-66
2022/10/06 00:25:29;;;;;;;2.63;0.80;;;;;;;12.37;100.00;101459.72;694577;28;1370;-66
2022/10/06 00:25:50;;;;;;;2.33;0.80;;;;;;;12.34;100.00;101462.34;694890;28;1360;-66
2022/10/06 00:26:15;;;;;;;1.90;0.90;;;;;;;12.34;100.00;101454.47;694840;28;1321;-66
2022/10/06 00:26:36;;;;;;;2.67;0.90;;;;;;;12.51;100.00;101462.34;694518;28;1214;-66
2022/10/06 00:26:56;;;;;;;3.45;0.95;;;;;;;12.64;100.00;101455.31;695689;28;1872;-66
2022/10/06 00:27:17;;;;;;;3.67;0.90;;;;;;;12.62;100.00;101464.97;698549;28;1385;-66
2022/10/06 00:27:39;;;;;;;3.35;0.98;;;;;;;12.58;100.00;101458.81;697796;28;1305;-65
2022/10/06 00:28:00;;;;;;;3.00;0.90;;;;;;;12.52;100.00;101454.47;696693;28;4893;-66
2022/10/06 00:28:21;;;;;;;2.20;0.98;;;;;;;12.47;100.00;101458.81;695802;28;1238;-66
2022/10/06 00:28:43;;;;;;;2.65;0.82;;;;;;;12.40;100.00;101454.47;691707;28;1317;-66
2022/10/06 00:29:03;;;;;;;4.45;0.90;;;;;;;12.33;100.00;101453.56;692509;28;1521;-66
2022/10/06 00:29:24;;;;;;;4.07;0.80;;;;;;;12.27;100.00;101450.97;690933;28;1201;-66
2022/10/06 00:29:45;;;;;;;4.22;0.90;;;;;;;12.31;100.00;101452.72;692191;28;1364;-65
2022/10/06 00:30:09;;;;;;;3.33;0.90;;;;;;;12.30;100.00;101452.72;691333;28;1350;-66
2022/10/06 00:30:30;;;;;;;2.85;0.85;;;;;;;12.34;100.00;101455.34;694499;28;1296;-66
2022/10/06 00:30:52;;;;;;;2.90;0.90;;;;;;;12.29;100.00;101458.81;695326;28;4402;-67
2022/10/06 00:31:13;;;;;;;2.90;0.85;;;;;;;12.20;100.00;101455.31;694535;28;1419;-66
2022/10/06 00:31:33;;;;;;;2.08;0.80;;;;;;;12.13;100.00;101456.19;694999;28;1360;-67
2022/10/06 00:31:54;;;;;;;2.55;0.82;;;;;;;12.08;100.00;101457.91;694750;28;1360;-67
2022/10/06 00:32:14;;;;;;;2.43;0.87;;;;;;;12.15;100.00;101453.56;693643;28;1326;-67
2022/10/06 00:32:35;;;;;;;3.90;0.90;;;;;;;12.19;100.00;101456.19;694028;28;1225;-67
2022/10/06 00:32:59;;;;;;;3.50;1.00;;;;;;;12.15;100.00;101459.69;694400;28;1445;-66
2022/10/06 00:33:19;;;;;;;2.42;0.90;;;;;;;12.12;100.00;101459.69;694154;28;1464;-67
2022/10/06 00:33:40;;;;;;;3.83;0.90;;;;;;;12.12;100.00;101464.91;691890;28;4519;-66
2022/10/06 00:34:00;;;;;;;4.40;1.00;;;;;;;12.12;100.00;101458.81;694869;28;1597;-67
2022/10/06 00:34:21;;;;;;;2.83;0.90;;;;;;;12.12;100.00;101462.31;689554;28;1367;-66
2022/10/06 00:34:42;;;;;;;3.08;0.88;;;;;;;12.14;100.00;101457.06;689392;28;1317;-66
2022/10/06 00:35:04;;;;;;;3.00;1.02;;;;;;;12.11;100.00;101457.91;690145;28;1914;-66
2022/10/06 00:35:27;;;;;;;2.90;0.95;;;;;;;12.15;100.00;101456.19;690752;28;1486;-66
2022/10/06 00:35:55;;;;;;;2.60;0.95;;;;;;;12.17;100.00;101459.69;689980;28;1286;-67
2022/10/06 00:36:16;;;;;;;5.05;1.00;;;;;;;12.21;100.00;101456.19;693432;28;1314;-66
2022/10/06 00:36:36;;;;;;;2.90;0.88;;;;;;;12.22;100.00;101458.81;694273;28;1586;-66
2022/10/06 00:36:57;;;;;;;5.03;0.80;;;;;;;12.27;100.00;101458.81;692207;28;4522;-66
2022/10/06 00:37:18;;;;;;;6.30;1.00;;;;;;;12.32;100.00;101466.69;692873;28;1382;-67
2022/10/06 00:37:38;;;;;;;3.37;0.93;;;;;;;12.37;100.00;101467.56;693517;28;1368;-66
2022/10/06 00:38:00;;;;;;;2.67;0.80;;;;;;;12.33;100.00;101466.69;694113;28;1443;-66
2022/10/06 00:38:21;;;;;;;2.65;0.90;;;;;;;12.26;100.00;101467.56;695389;28;1638;-66
2022/10/06 00:38:41;;;;;;;3.00;0.90;;;;;;;12.23;100.00;101463.19;691676;28;1380;-66
2022/10/06 00:39:05;;;;;;;2.95;0.85;;;;;;;12.25;100.00;101465.81;689226;28;4961;-66
2022/10/06 00:39:25;;;;;;;2.37;0.80;;;;;;;12.24;100.00;101470.19;687135;28;1488;-66
2022/10/06 00:39:46;;;;;;;3.05;0.90;;;;;;;12.21;100.00;101467.56;686656;28;4605;-66
2022/10/06 00:40:08;;;;;;;2.63;0.97;;;;;;;12.17;100.00;101463.19;686979;28;1132;-66
2022/10/06 00:40:30;;;;;;;3.50;1.10;;;;;;;12.16;100.00;101469.28;685713;28;1378;-66
2022/10/06 00:40:50;;;;;;;3.47;1.00;;;;;;;12.15;100.00;101471.91;686741;28;1462;-66
2022/10/06 00:41:15;;;;;;;4.00;1.00;;;;;;;12.19;100.00;101471.91;683966;28;1382;-66
2022/10/06 00:41:37;;;;;;;2.65;0.82;;;;;;;12.18;100.00;101470.16;684166;28;1213;-66
2022/10/06 00:41:58;;;;;;;4.53;0.90;;;;;;;12.16;100.00;101471.06;686184;28;1195;-66
2022/10/06 00:42:29;;;;;;;2.22;0.90;;;;;;;12.07;100.00;101471.88;687373;28;1590;-66
2022/10/06 00:42:56;;;;;;;3.60;0.85;;;;;;;12.04;100.00;101466.66;688793;28;4317;-66
2022/10/06 00:43:46;;;;;;;3.58;0.90;;;;;;;11.98;100.00;101467.50;691837;28;1643;-66
2022/10/06 00:44:06;;;;;;;3.38;0.90;;;;;;;11.96;100.00;101471.84;696997;28;1414;-66
2022/10/06 00:44:27;;;;;;;3.42;1.10;;;;;;;11.95;100.00;101472.75;693872;28;1442;-66
2022/10/06 00:44:48;;;;;;;3.83;1.23;;;;;;;11.89;100.00;101470.97;690138;28;1270;-66
2022/10/06 00:45:10;;;;;;;3.28;0.90;;;;;;;11.86;100.00;101476.16;689501;28;1461;-66
2022/10/06 00:45:38;;;;;;;3.95;0.90;;;;;;;11.85;100.00;101474.44;685566;28;1263;-66
2022/10/06 00:45:58;;;;;;;3.03;0.90;;;;;;;11.90;100.00;101474.44;687317;28;4473;-66
2022/10/06 00:46:32;;;;;;;2.93;0.87;;;;;;;11.92;100.00;101475.31;688266;28;1640;-66
2022/10/06 00:46:53;;;;;;;3.03;1.20;;;;;;;11.93;100.00;101477.06;693357;28;1226;-66
2022/10/06 00:47:14;;;;;;;3.53;0.90;;;;;;;11.93;100.00;101480.59;695025;28;1329;-66
2022/10/06 00:47:34;;;;;;;2.87;1.00;;;;;;;11.90;100.00;101480.56;694040;28;1268;-65
2022/10/06 00:47:59;;;;;;;3.38;1.05;;;;;;;11.84;100.00;101475.31;693532;28;1372;-66
2022/10/06 00:48:23;;;;;;;3.33;0.93;;;;;;;11.79;100.00;101474.41;694045;28;1302;-66
2022/10/06 00:48:47;;;;;;;2.97;0.93;;;;;;;11.78;100.00;101479.66;693166;28;4372;-66
2022/10/06 00:49:29;;;;;;;3.80;0.85;;;;;;;11.78;100.00;101477.88;693115;28;1381;-66
2022/10/06 00:49:53;;;;;;;5.78;1.00;;;;;;;11.79;100.00;101477.03;693599;28;1535;-66
2022/10/06 00:50:14;;;;;;;5.03;1.02;;;;;;;11.80;100.00;101489.25;694480;28;1646;-66
2022/10/06 00:50:35;;;;;;;3.88;1.15;;;;;;;11.79;100.00;101479.66;694118;28;1345;-66
2022/10/06 00:50:57;;;;;;;2.65;0.93;;;;;;;11.75;100.00;101480.50;692437;28;1434;-66
2022/10/06 00:51:20;;;;;;;3.55;1.10;;;;;;;11.71;100.00;101478.75;690232;28;1540;-66
2022/10/06 00:51:46;;;;;;;4.65;1.00;;;;;;;11.70;100.00;101482.22;690299;28;4505;-67
2022/10/06 00:52:12;;;;;;;4.60;1.00;;;;;;;11.70;100.00;101477.88;688648;28;1346;-66
2022/10/06 00:52:33;;;;;;;3.95;1.02;;;;;;;11.70;100.00;101483.13;687810;28;1244;-67
2022/10/06 00:52:55;;;;;;;3.67;1.00;;;;;;;11.73;100.00;101480.50;687498;28;1402;-66
2022/10/06 00:53:16;;;;;;;3.70;0.90;;;;;;;11.78;100.00;101477.03;689089;28;1599;-66
2022/10/06 00:53:37;;;;;;;3.78;1.00;;;;;;;11.81;100.00;101484.88;685157;28;1477;-66
2022/10/06 00:53:58;;;;;;;2.63;1.00;;;;;;;11.79;100.00;101477.03;686533;28;1389;-66
2022/10/06 00:54:18;;;;;;;2.80;1.00;;;;;;;11.78;100.00;101480.50;685958;28;1386;-66
2022/10/06 00:54:39;;;;;;;3.28;1.05;;;;;;;11.79;100.00;101479.66;688802;28;4574;-66
2022/10/06 00:55:03;;;;;;;4.82;1.20;;;;;;;11.81;100.00;101479.66;684088;28;1902;-66
2022/10/06 00:55:23;;;;;;;4.03;1.02;;;;;;;11.81;100.00;101485.78;684470;28;2082;-66
2022/10/06 00:55:44;;;;;;;2.95;0.90;;;;;;;11.82;100.00;101487.50;688134;28;1287;-66
2022/10/06 00:56:04;;;;;;;3.53;0.87;;;;;;;11.82;100.00;101484.88;690089;28;1370;-66
2022/10/06 00:56:25;;;;;;;2.55;0.85;;;;;;;11.84;100.00;101485.78;690858;28;1262;-66
2022/10/06 00:56:46;;;;;;;2.92;0.82;;;;;;;11.91;100.00;101484.06;692066;28;1417;-67
2022/10/06 00:57:07;;;;;;;3.05;0.90;;;;;;;11.92;100.00;101486.69;690201;28;1326;-66
2022/10/06 00:57:27;;;;;;;3.03;0.90;;;;;;;11.93;100.00;101487.56;692731;28;1320;-66
2022/10/06 00:57:49;;;;;;;2.87;0.90;;;;;;;11.91;100.00;101490.16;692281;28;4405;-66
2022/10/06 00:58:10;;;;;;;3.30;1.20;;;;;;;11.90;100.00;101491.03;694366;28;1352;-66
2022/10/06 00:58:31;;;;;;;3.42;0.98;;;;;;;11.89;100.00;101489.31;694287;28;1604;-66
2022/10/06 00:58:52;;;;;;;3.63;0.90;;;;;;;11.89;100.00;101491.94;694053;28;1330;-66
2022/10/06 00:59:17;;;;;;;3.78;1.00;;;;;;;11.90;100.00;101496.28;692987;28;1374;-66
2022/10/06 00:59:39;;;;;;;2.60;1.00;;;;;;;11.87;100.00;101492.78;692906;28;1522;-66
2022/10/06 01:00:01;;;;;;;2.47;1.00;;;;;;;11.84;100.00;101491.03;691441;28;1543;-67
2022/10/06 01:00:21;;;;;;;2.58;0.90;;;;;;;11.86;100.00;101494.50;688832;28;1623;-66
2022/10/06 01:00:43;;;;;;;2.87;0.93;;;;;;;11.82;100.00;101487.50;685286;28;4445;-66
2022/10/06 01:01:04;;;;;;;3.28;0.90;;;;;;;11.84;100.00;101493.66;693487;28;1284;-67
2022/10/06 01:01:26;;;;;;;4.13;1.03;;;;;;;11.90;100.00;101491.03;695312;28;1288;-67
2022/10/06 01:01:56;;;;;;;3.78;1.00;;;;;;;11.90;100.00;101490.16;698164;28;1533;-66
2022/10/06 01:02:25;;;;;;;3.75;1.10;;;;;;;11.85;100.00;101490.16;699470;28;1317;-66
2022/10/06 01:03:10;;;;;;;2.35;0.88;;;;;;;11.97;100.00;101496.34;699948;28;1328;-66
2022/10/06 01:03:34;;;;;;;4.15;1.00;;;;;;;11.93;100.00;101495.41;695952;28;1484;-66
2022/10/06 01:03:59;;;;;;;4.05;1.00;;;;;;;11.90;100.00;101490.16;694947;28;4287;-66
2022/10/06 01:04:20;;;;;;;2.85;0.90;;;;;;;12.00;100.00;101501.59;695051;28;1492;-66
2022/10/06 01:04:47;;;;;;;2.28;0.90;;;;;;;11.99;100.00;101497.19;693880;28;1702;-66
2022/10/06 01:05:10;;;;;;;2.67;0.95;;;;;;;11.96;100.00;101498.06;693812;28;1394;-66
2022/10/06 01:05:37;;;;;;;2.53;0.90;;;;;;;11.92;100.00;101496.28;695854;28;1437;-66
2022/10/06 01:05:58;;;;;;;2.33;0.88;;;;;;;11.86;100.00;101494.50;696254;28;1546;-66
2022/10/06 01:06:20;;;;;;;4.32;1.05;;;;;;;11.84;100.00;101498.88;694438;28;1524;-66
2022/10/06 01:06:44;;;;;;;4.00;1.10;;;;;;;11.86;100.00;101497.13;692742;28;4391;-66
2022/10/06 01:07:06;;;;;;;4.60;1.00;;;;;;;11.97;100.00;101497.19;691947;28;1455;-66
2022/10/06 01:07:29;;;;;;;7.07;1.15;;;;;;;12.05;100.00;101494.63;688930;28;1592;-66
2022/10/06 01:07:49;;;;;;;4.00;0.90;;;;;;;11.97;100.00;101505.06;689140;28;1212;-66
2022/10/06 01:08:10;;;;;;;3.53;1.00;;;;;;;11.90;100.00;101496.28;691857;28;1398;-67
2022/10/06 01:08:31;;;;;;;2.97;1.00;;;;;;;11.88;100.00;101497.13;695229;28;1346;-66
2022/10/06 01:08:52;;;;;;;3.97;1.10;;;;;;;11.91;100.00;101498.03;695113;28;1337;-66
2022/10/06 01:09:15;;;;;;;3.17;0.95;;;;;;;11.98;100.00;101501.56;696783;28;1393;-66
2022/10/06 01:09:37;;;;;;;2.40;1.00;;;;;;;11.96;100.00;101505.94;697383;28;1197;-66
2022/10/06 01:09:58;;;;;;;2.83;1.00;;;;;;;11.90;100.00;101501.50;695656;28;4382;-67
2022/10/06 01:10:19;;;;;;;2.83;0.90;;;;;;;12.01;100.00;101511.19;700055;28;1468;-66
2022/10/06 01:10:39;;;;;;;2.60;1.00;;;;;;;12.08;100.00;101499.84;699648;28;1432;-66
2022/10/06 01:10:59;;;;;;;2.38;1.08;;;;;;;12.02;100.00;101510.34;699931;28;1367;-66
2022/10/06 01:11:23;;;;;;;3.78;1.13;;;;;;;11.97;100.00;101501.56;699467;28;1333;-66
2022/10/06 01:11:46;;;;;;;4.70;1.20;;;;;;;11.91;100.00;101508.50;696074;28;1384;-66
2022/10/06 01:12:08;;;;;;;3.20;1.10;;;;;;;11.87;100.00;101501.50;697528;28;1340;-68
2022/10/06 01:12:29;;;;;;;2.85;1.10;;;;;;;11.88;100.00;101503.28;696887;28;1368;-66
2022/10/06 01:12:50;;;;;;;2.83;1.10;;;;;;;11.85;100.00;101503.25;693317;28;4436;-66
2022/10/06 01:13:12;;;;;;;3.25;1.10;;;;;;;11.79;100.00;101500.59;694581;28;1294;-66
2022/10/06 01:13:33;;;;;;;3.63;1.05;;;;;;;11.75;100.00;101511.94;694057;28;2126;-67
2022/10/06 01:13:54;;;;;;;2.67;1.00;;;;;;;11.78;100.00;101506.72;693901;28;1333;-66
2022/10/06 01:14:16;;;;;;;2.70;1.08;;;;;;;11.80;100.00;101507.59;694665;28;1303;-66
2022/10/06 01:14:38;;;;;;;4.63;1.15;;;;;;;11.83;100.00;101507.59;693151;28;1323;-66
2022/10/06 01:14:59;;;;;;;4.05;1.13;;;;;;;11.96;100.00;101500.69;692738;28;1536;-66
2022/10/06 01:15:21;;;;;;;3.22;1.10;;;;;;;12.08;100.00;101511.19;690283;28;2189;-66
2022/10/06 01:16:09;;;;;;;3.65;1.20;;;;;;;11.97;100.00;101506.81;688435;28;4535;-66
2022/10/06 01:16:33;;;;;;;2.30;1.00;;;;;;;11.98;100.00;101503.34;690902;28;1207;-67
2022/10/06 01:17:28;;;;;;;3.30;1.00;;;;;;;11.94;100.00;101510.31;693190;28;1317;-67
2022/10/06 01:17:58;;;;;;;3.15;1.10;;;;;;;11.97;100.00;101506.81;683334;28;2224;-67
2022/10/06 01:18:22;;;;;;;2.90;1.00;;;;;;;12.11;100.00;101515.59;696516;28;1447;-66
2022/10/06 01:18:46;;;;;;;3.95;1.00;;;;;;;12.02;100.00;101515.59;696274;28;4290;-66
2022/10/06 01:19:16;;;;;;;3.22;1.10;;;;;;;11.93;100.00;101512.03;696259;28;1234;-66
2022/10/06 01:19:48;;;;;;;2.83;1.00;;;;;;;11.88;100.00;101508.50;695799;28;1750;-66
2022/10/06 01:20:14;;;;;;;2.80;1.00;;;;;;;11.88;100.00;101521.59;697494;28;1400;-66
2022/10/06 01:20:35;;;;;;;2.83;1.00;;;;;;;11.80;100.00;101525.94;698350;28;1428;-66
2022/10/06 01:21:04;;;;;;;2.22;1.00;;;;;;;11.77;100.00;101520.69;698323;28;1396;-66
2022/10/06 01:21:33;;;;;;;3.20;1.20;;;;;;;11.79;100.00;101529.41;697933;28;1265;-66
2022/10/06 01:21:57;;;;;;;3.42;1.23;;;;;;;11.87;100.00;101526.84;697289;28;4466;-66
2022/10/06 01:22:27;;;;;;;3.17;1.15;;;;;;;11.81;100.00;101521.56;699192;28;1158;-66
2022/10/06 01:22:54;;;;;;;4.13;1.25;;;;;;;11.82;100.00;101520.69;697214;28;1365;-66
2022/10/06 01:23:15;;;;;;;3.20;1.15;;;;;;;11.84;100.00;101526.84;694942;28;1421;-66
2022/10/06 01:23:36;;;;;;;3.13;1.10;;;;;;;11.83;100.00;101520.69;695785;28;1305;-66
2022/10/06 01:23:57;;;;;;;4.30;1.10;;;;;;;11.86;100.00;101530.31;692388;28;1389;-66
2022/10/06 01:24:18;;;;;;;4.28;1.20;;;;;;;11.92;100.00;101526.00;695048;28;1532;-66
2022/10/06 01:24:39;;;;;;;5.15;1.35;;;;;;;11.95;100.00;101524.25;691460;28;4466;-66
2022/10/06 01:25:01;;;;;;;4.85;1.20;;;;;;;11.91;100.00;101520.75;693807;28;1468;-66
2022/10/06 01:25:21;;;;;;;3.40;1.20;;;;;;;11.88;100.00;101523.34;695081;28;1698;-66
2022/10/06 01:25:44;;;;;;;4.00;1.20;;;;;;;11.91;100.00;101524.22;691844;28;1720;-66
2022/10/06 01:26:09;;;;;;;4.07;1.20;;;;;;;11.97;100.00;101527.78;695662;28;1437;-66
2022/10/06 01:26:32;;;;;;;4.78;1.20;;;;;;;12.01;100.00;101526.94;692874;28;1392;-66
2022/10/06 01:26:55;;;;;;;3.75;1.13;;;;;;;11.93;100.00;101527.75;694808;28;1429;-66
2022/10/06 01:27:16;;;;;;;3.70;1.27;;;;;;;11.92;100.00;101526.00;696216;28;1226;-66
2022/10/06 01:27:40;;;;;;;3.65;1.20;;;;;;;11.96;100.00;101533.88;692507;28;1373;-66
2022/10/06 01:28:06;;;;;;;3.45;1.20;;;;;;;11.95;100.00;101525.16;689124;28;5262;-66
2022/10/06 01:28:26;;;;;;;2.40;1.10;;;;;;;11.91;100.00;101526.00;691594;28;1622;-66
2022/10/06 01:28:48;;;;;;;3.25;1.10;;;;;;;11.91;100.00;101523.38;693375;28;1422;-66
2022/10/06 01:29:09;;;;;;;4.00;1.23;;;;;;;11.91;100.00;101531.22;692118;28;1254;-66
2022/10/06 01:29:33;;;;;;;2.90;1.25;;;;;;;11.92;100.00;101530.34;687360;28;1315;-66
2022/10/06 01:29:55;;;;;;;3.22;1.25;;;;;;;11.97;100.00;101519.91;689591;28;1265;-66
2022/10/06 01:30:22;;;;;;;3.22;1.20;;;;;;;11.96;100.00;101516.41;689574;28;1393;-66
2022/10/06 01:30:51;;;;;;;4.57;1.10;;;;;;;11.97;100.00;101533.03;689252;28;4562;-66
2022/10/06 01:31:14;;;;;;;5.15;1.20;;;;;;;11.95;100.00;101530.41;695545;28;1413;-66
2022/10/06 01:31:36;;;;;;;4.85;1.30;;;;;;;11.98;100.00;101534.78;695320;28;1471;-66
2022/10/06 01:31:58;;;;;;;4.70;1.38;;;;;;;12.03;100.00;101533.91;695226;28;1330;-66
2022/10/06 01:32:20;;;;;;;4.40;1.30;;;;;;;12.06;100.00;101530.44;692802;28;1089;-66
2022/10/06 01:32:40;;;;;;;5.10;1.30;;;;;;;12.00;100.00;101530.41;691931;28;2072;-66
2022/10/06 01:33:02;;;;;;;5.27;1.50;;;;;;;11.98;100.00;101529.53;693356;28;1436;-66
2022/10/06 01:33:22;;;;;;;5.20;1.40;;;;;;;11.99;100.00;101531.25;692993;28;1390;-66
2022/10/06 01:33:44;;;;;;;3.67;1.30;;;;;;;12.04;100.00;101529.53;692792;28;4420;-67
2022/10/06 01:34:05;;;;;;;4.18;1.40;;;;;;;12.08;100.00;101536.53;692795;28;1442;-66
2022/10/06 01:34:27;;;;;;;4.03;1.33;;;;;;;12.12;100.00;101533.06;693156;28;1576;-66
2022/10/06 01:34:47;;;;;;;5.05;1.50;;;;;;;12.14;100.00;101533.94;695163;28;1238;-66
2022/10/06 01:35:08;;;;;;;3.67;1.30;;;;;;;12.18;100.00;101532.19;692218;28;1926;-66
2022/10/06 01:35:29;;;;;;;3.60;1.33;;;;;;;12.11;100.00;101528.69;692743;28;1370;-66
2022/10/06 01:35:51;;;;;;;4.93;1.33;;;;;;;12.15;100.00;101527.81;692184;28;1334;-66
2022/10/06 01:36:11;;;;;;;3.75;1.20;;;;;;;12.20;100.00;101526.09;693328;28;1415;-66
2022/10/06 01:36:32;;;;;;;4.18;1.30;;;;;;;12.18;100.00;101537.44;692817;28;1453;-67
2022/10/06 01:36:53;;;;;;;5.07;1.30;;;;;;;12.18;100.00;101532.19;692421;28;4332;-66
2022/10/06 01:37:14;;;;;;;4.65;1.50;;;;;;;12.17;100.00;101530.44;691786;28;1510;-66
2022/10/06 01:37:34;;;;;;;4.90;1.42;;;;;;;12.15;100.00;101533.06;693389;28;1586;-66
2022/10/06 01:37:57;;;;;;;5.13;1.50;;;;;;;12.08;100.00;101531.31;692692;28;1343;-66
2022/10/06 01:38:20;;;;;;;4.25;1.27;;;;;;;12.06;100.00;101533.94;691643;28;1496;-66
2022/10/06 01:38:44;;;;;;;4.03;1.40;;;;;;;12.05;100.00;101526.94;687066;28;1275;-66
2022/10/06 01:39:04;;;;;;;4.37;1.47;;;;;;;12.00;100.00;101533.03;690550;28;5252;-66
2022/10/06 01:39:24;;;;;;;4.10;1.48;;;;;;;12.03;100.00;101533.91;687051;28;1293;-65
2022/10/06 01:39:45;;;;;;;4.73;1.40;;;;;;;12.02;100.00;101528.69;683735;28;4391;-66
2022/10/06 01:40:08;;;;;;;5.53;1.48;;;;;;;12.02;100.00;101531.31;684395;28;1332;-66
2022/10/06 01:40:29;;;;;;;4.55;1.30;;;;;;;12.00;100.00;101528.66;684539;28;1363;-66
2022/10/06 01:40:53;;;;;;;5.20;1.45;;;;;;;11.99;100.00;101529.53;686465;28;1428;-66
2022/10/06 01:41:13;;;;;;;3.95;1.25;;;;;;;11.98;100.00;101525.16;689514;28;1446;-66
2022/10/06 01:41:34;;;;;;;5.70;1.50;;;;;;;11.90;100.00;101530.34;693788;28;1303;-66
2022/10/06 01:41:55;;;;;;;5.90;1.50;;;;;;;11.90;100.00;101532.09;694102;28;1214;-66
2022/10/06 01:42:16;;;;;;;5.33;1.70;;;;;;;11.92;100.00;101530.34;692635;28;1498;-67
2022/10/06 01:42:36;;;;;;;4.13;1.48;;;;;;;11.90;100.00;101532.94;692572;28;1477;-66
2022/10/06 01:42:57;;;;;;;5.40;1.42;;;;;;;11.94;100.00;101531.25;689816;28;4420;-66
2022/10/06 01:43:20;;;;;;;4.82;1.70;;;;;;;11.98;100.00;101534.78;688439;28;1436;-66
2022/10/06 01:43:41;;;;;;;3.83;1.63;;;;;;;12.05;100.00;101537.41;684801;28;1454;-66
2022/10/06 01:44:01;;;;;;;4.78;1.50;;;;;;;12.11;100.00;101539.16;685016;28;1522;-66
2022/10/06 01:44:22;;;;;;;4.40;1.23;;;;;;;12.21;100.00;101540.06;687101;28;1271;-66
2022/10/06 01:44:44;;;;;;;4.80;1.40;;;;;;;12.35;100.00;101543.63;690179;28;1406;-66
2022/10/06 01:45:06;;;;;;;4.28;1.48;;;;;;;12.35;100.00;101545.34;690417;28;1492;-66
2022/10/06 01:45:27;;;;;;;4.95;1.50;;;;;;;12.30;100.00;101539.25;689714;28;1370;-66
2022/10/06 01:45:54;;;;;;;5.47;1.40;;;;;;;12.25;100.00;101539.19;693601;28;4551;-67